Terminal Aerodrome Forecast
Issued by NWS

Home | Current Version | Previous Version | Text Only | Print | Product List | Glossary On
Versions: 1 2 3 4 5 6 7 8 9 10 11 12 13 14 15 16 17 18 19 20 21 22 23 24 25 26 27 28 29 30 31 32 33 34 35 36 37 38 39 40 41 42 43 44 45 46 47 48 49 50
000
FTAK31 PANC 070531
TAFADQ
TAF
PADQ 070531Z 0706/0806 15007KT P6SM VCFG SCT006 BKN015 OVC025
      TEMPO 0706/0710 3SM BR SCT015 BKN025 OVC040
     FM071800 15005KT P6SM SCT015 OVC030
     FM072200 11006KT P6SM SCT025 BKN040=

USA.gov is the U.S. government's official web portal to all federal, state and local government web resources and services.